createdAt,value
2024-01-12T00:00:21.020Z,48.57
2024-01-12T00:02:51.077Z,55.80
2024-01-12T00:05:23.723Z,54.53
2024-01-12T00:07:53.669Z,48.50
2024-01-12T00:10:23.594Z,49.63
2024-01-12T00:12:53.792Z,57.40
2024-01-12T00:15:23.853Z,44.63
2024-01-12T00:17:53.808Z,45.47
2024-01-12T00:20:26.455Z,61.27
2024-01-12T00:22:57.630Z,50.07
2024-01-12T00:25:27.566Z,52.97
2024-01-12T00:27:57.484Z,47.20
2024-01-12T00:30:27.341Z,46.73
2024-01-12T00:32:57.929Z,46.30
2024-01-12T00:35:30.564Z,46.97
2024-01-12T00:38:00.599Z,45.30
2024-01-12T00:40:30.458Z,56.50
2024-01-12T00:43:00.295Z,54.67
2024-01-12T00:45:30.237Z,47.83
2024-01-12T00:48:00.308Z,47.33
2024-01-12T00:50:32.852Z,50.60
2024-01-12T00:53:17.567Z,46.13
2024-01-12T00:55:47.565Z,49.57
2024-01-12T00:58:17.364Z,49.27
2024-01-12T01:00:47.343Z,61.07
2024-01-12T01:03:17.281Z,56.37
2024-01-12T01:05:50.389Z,58.77
2024-01-12T01:08:20.413Z,45.40
2024-01-12T01:10:50.313Z,48.83
2024-01-12T01:13:20.179Z,58.83
2024-01-12T01:15:50.279Z,51.53
2024-01-12T01:18:20.278Z,56.80
2024-01-12T01:20:52.867Z,55.33
2024-01-12T01:23:22.778Z,58.77
2024-01-12T01:25:52.744Z,50.60
2024-01-12T01:28:23.212Z,47.60
2024-01-12T01:30:53.107Z,57.50
2024-01-12T01:33:23.119Z,53.73
2024-01-12T01:35:55.750Z,48.00
2024-01-12T01:38:25.812Z,43.10
2024-01-12T01:40:55.757Z,51.43
2024-01-12T01:43:25.639Z,46.53
2024-01-12T01:45:56.047Z,57.57
2024-01-12T01:48:26.820Z,46.60
2024-01-12T01:50:59.658Z,55.97
2024-01-12T01:53:29.960Z,54.90
2024-01-12T01:56:00.052Z,54.87
2024-01-12T01:58:29.968Z,47.17
2024-01-12T02:01:00.644Z,52.80
2024-01-12T02:03:30.895Z,55.10
2024-01-12T02:06:04.132Z,46.83
2024-01-12T02:08:34.181Z,51.87
2024-01-12T02:11:04.036Z,48.53
2024-01-12T02:13:33.865Z,48.27
2024-01-12T02:16:06.789Z,51.57
2024-01-12T02:18:38.565Z,49.60
2024-01-12T02:21:11.290Z,55.33
2024-01-12T02:23:41.152Z,50.60
2024-01-12T02:26:11.123Z,56.57
2024-01-12T02:28:41.048Z,47.90
2024-01-12T02:31:11.137Z,57.73
2024-01-12T02:33:41.013Z,56.43
2024-01-12T02:36:13.688Z,50.03
2024-01-12T02:38:44.861Z,50.07
2024-01-12T02:41:14.819Z,51.57
2024-01-12T02:43:44.748Z,55.67
2024-01-12T02:46:14.717Z,51.17
2024-01-12T02:48:44.688Z,51.83
2024-01-12T02:51:17.180Z,52.77
2024-01-12T02:53:47.143Z,54.60
2024-01-12T02:56:17.108Z,55.87
2024-01-12T02:58:46.902Z,55.67
2024-01-12T03:01:16.678Z,50.63
2024-01-12T03:03:46.545Z,56.70
2024-01-12T03:06:21.947Z,50.10
2024-01-12T03:08:51.875Z,48.90
2024-01-12T03:11:21.845Z,60.60
2024-01-12T03:13:51.727Z,51.37
2024-01-12T03:16:23.051Z,53.37
2024-01-12T03:18:53.507Z,56.50
2024-01-12T03:21:26.173Z,55.03
2024-01-12T03:24:00.614Z,61.93
2024-01-12T03:26:30.624Z,51.83
2024-01-12T03:29:00.577Z,60.30
2024-01-12T03:31:30.418Z,57.13
2024-01-12T03:34:00.454Z,59.00
2024-01-12T03:36:33.144Z,54.10
2024-01-12T03:39:03.183Z,48.60
2024-01-12T03:41:33.220Z,61.80
2024-01-12T03:44:03.243Z,56.93
2024-01-12T03:46:33.085Z,54.30
2024-01-12T03:49:03.076Z,62.40
2024-01-12T03:51:40.365Z,54.03
2024-01-12T03:54:10.194Z,65.93
2024-01-12T03:56:40.190Z,54.90
2024-01-12T03:59:10.028Z,54.33
2024-01-12T04:01:41.169Z,60.03
2024-01-12T04:04:11.115Z,58.57
2024-01-12T04:06:44.068Z,61.10
2024-01-12T04:09:14.882Z,51.07
2024-01-12T04:11:44.812Z,57.73
2024-01-12T04:14:14.659Z,53.97
2024-01-12T04:16:44.580Z,51.73
2024-01-12T04:19:14.512Z,67.17
2024-01-12T04:21:47.088Z,61.23
2024-01-12T04:24:16.921Z,64.27
2024-01-12T04:26:46.925Z,53.83
2024-01-12T04:29:16.951Z,55.67
2024-01-12T04:31:47.300Z,52.57
2024-01-12T04:34:17.414Z,57.90
2024-01-12T04:36:50.478Z,60.67
2024-01-12T04:39:20.413Z,50.33
2024-01-12T04:41:50.502Z,58.30
2024-01-12T04:44:20.906Z,63.33
2024-01-12T04:46:50.809Z,57.80
2024-01-12T04:49:20.742Z,59.50
2024-01-12T04:51:53.256Z,53.73
2024-01-12T04:54:23.167Z,50.70
2024-01-12T04:56:53.069Z,53.00
2024-01-12T04:59:23.145Z,58.37
2024-01-12T05:01:53.159Z,55.93
2024-01-12T05:04:23.148Z,60.30
2024-01-12T05:06:55.626Z,55.37
2024-01-12T05:09:25.588Z,53.73
2024-01-12T05:11:55.471Z,49.87
2024-01-12T05:14:25.398Z,51.03
2024-01-12T05:16:55.393Z,54.23
2024-01-12T05:19:25.345Z,44.20
2024-01-12T05:21:57.899Z,56.47
2024-01-12T05:24:28.335Z,59.47
2024-01-12T05:26:58.299Z,58.03
2024-01-12T05:29:28.254Z,57.30
2024-01-12T05:31:58.143Z,57.17
2024-01-12T05:34:28.018Z,57.43
2024-01-12T05:37:00.576Z,51.10
2024-01-12T05:39:30.398Z,50.03
2024-01-12T05:42:00.395Z,55.50
2024-01-12T05:44:30.945Z,48.47
2024-01-12T05:47:00.813Z,58.67
2024-01-12T05:49:30.740Z,58.27
2024-01-12T05:52:03.298Z,54.33
2024-01-12T05:54:33.229Z,59.50
2024-01-12T05:57:03.181Z,49.10
2024-01-12T05:59:34.453Z,64.70
2024-01-12T06:02:04.890Z,52.33
2024-01-12T06:04:34.892Z,48.90
2024-01-12T06:07:07.491Z,55.30
2024-01-12T06:09:37.318Z,46.17
2024-01-12T06:12:08.038Z,50.13
2024-01-12T06:14:38.126Z,60.40
2024-01-12T06:17:09.411Z,51.27
2024-01-12T06:19:39.402Z,51.83
2024-01-12T06:22:12.006Z,47.53
2024-01-12T06:24:42.233Z,57.60
2024-01-12T06:27:12.220Z,56.37
2024-01-12T06:29:42.193Z,58.23
2024-01-12T06:32:14.223Z,50.03
2024-01-12T06:34:44.362Z,64.20
2024-01-12T06:37:16.862Z,62.60
2024-01-12T06:39:47.090Z,64.00
2024-01-12T06:42:16.869Z,75.20
2024-01-12T06:44:46.796Z,70.00
2024-01-12T06:47:17.212Z,63.57
2024-01-12T06:49:47.590Z,67.37
2024-01-12T06:52:20.487Z,57.50
2024-01-12T06:54:51.852Z,82.37
2024-01-12T06:57:22.127Z,69.50
2024-01-12T06:59:52.036Z,97.93
2024-01-12T07:02:22.481Z,63.37
2024-01-12T07:04:52.815Z,66.10
2024-01-12T07:07:25.497Z,66.53
2024-01-12T07:09:55.404Z,63.53
2024-01-12T07:12:27.066Z,59.07
2024-01-12T07:14:57.155Z,60.07
2024-01-12T07:17:27.364Z,62.70
2024-01-12T07:19:57.273Z,68.03
2024-01-12T07:22:29.946Z,56.63
2024-01-12T07:24:59.830Z,55.17
2024-01-12T07:27:29.654Z,52.10
2024-01-12T07:29:59.648Z,57.10
2024-01-12T07:32:29.739Z,58.00
2024-01-12T07:34:59.721Z,50.40
2024-01-12T07:37:32.272Z,52.73
2024-01-12T07:40:02.359Z,62.23
2024-01-12T07:42:32.202Z,56.07
2024-01-12T07:45:02.216Z,58.90
2024-01-12T07:47:32.154Z,58.27
2024-01-12T07:50:02.139Z,47.77
2024-01-12T07:52:34.746Z,62.13
2024-01-12T07:55:04.658Z,58.43
2024-01-12T07:57:34.985Z,55.53
2024-01-12T08:00:04.999Z,48.33
2024-01-12T08:02:34.927Z,54.13
2024-01-12T08:05:05.672Z,58.13
2024-01-12T08:07:39.354Z,60.57
2024-01-12T08:10:10.224Z,54.53
2024-01-12T08:12:40.072Z,51.50
2024-01-12T08:15:11.243Z,58.87
2024-01-12T08:17:41.659Z,54.73
2024-01-12T08:20:12.519Z,51.57
2024-01-12T08:22:44.931Z,49.83
2024-01-12T08:25:14.787Z,49.63
2024-01-12T08:27:44.633Z,49.97
2024-01-12T08:30:14.882Z,55.97
2024-01-12T08:32:45.767Z,45.97
2024-01-12T08:35:15.992Z,45.83
2024-01-12T08:37:48.448Z,48.53
2024-01-12T08:40:18.478Z,41.73
2024-01-12T08:42:48.395Z,40.60
2024-01-12T08:45:18.331Z,49.87
2024-01-12T08:47:48.230Z,45.83
2024-01-12T08:50:18.285Z,35.43
2024-01-12T08:52:51.106Z,40.60
2024-01-12T08:55:20.901Z,40.37
2024-01-12T08:57:52.082Z,42.53
2024-01-12T09:00:22.989Z,33.90
2024-01-12T09:02:53.123Z,30.17
2024-01-12T09:05:23.704Z,31.20
2024-01-12T09:07:56.316Z,32.47
2024-01-12T09:10:26.144Z,30.27
2024-01-12T09:12:56.201Z,26.63
2024-01-12T09:15:26.185Z,27.33
2024-01-12T09:17:56.083Z,37.10
2024-01-12T09:20:26.011Z,38.53
2024-01-12T09:22:58.520Z,30.70
2024-01-12T09:25:28.630Z,33.47
2024-01-12T09:27:59.661Z,28.37
2024-01-12T09:30:29.511Z,30.23
2024-01-12T09:32:59.548Z,34.50
2024-01-12T09:35:29.618Z,29.90
2024-01-12T09:38:02.200Z,32.57
2024-01-12T09:40:32.150Z,24.97
2024-01-12T09:43:04.319Z,33.23
2024-01-12T09:45:39.187Z,24.23
2024-01-12T09:48:11.865Z,29.47
2024-01-12T09:50:43.209Z,28.03
2024-01-12T09:53:15.728Z,28.43
2024-01-12T09:55:45.831Z,28.30
2024-01-12T09:58:17.131Z,31.00
2024-01-12T10:00:48.775Z,45.53
2024-01-12T10:03:21.591Z,37.47
2024-01-12T10:05:51.685Z,41.30
2024-01-12T10:08:24.246Z,37.03
2024-01-12T10:10:54.606Z,30.87
2024-01-12T10:13:24.544Z,23.37
2024-01-12T10:15:54.441Z,34.57
2024-01-12T10:18:25.678Z,25.30
2024-01-12T10:20:55.703Z,33.73
2024-01-12T10:23:29.340Z,33.83
2024-01-12T10:26:02.635Z,27.97
2024-01-12T10:28:33.465Z,29.30
2024-01-12T10:31:09.046Z,29.67
2024-01-12T10:33:39.526Z,42.07
2024-01-12T10:36:15.760Z,29.57
2024-01-12T10:38:49.344Z,27.97
2024-01-12T10:41:23.481Z,35.20
2024-01-12T10:43:58.831Z,36.03
2024-01-12T10:46:36.748Z,30.40
2024-01-12T10:49:14.545Z,37.50
2024-01-12T10:51:56.696Z,27.63
2024-01-12T10:54:36.130Z,29.13
2024-01-12T10:57:06.830Z,38.67
2024-01-12T10:59:37.072Z,36.17
2024-01-12T11:02:08.083Z,41.00
2024-01-12T11:04:38.182Z,39.53
2024-01-12T11:07:10.350Z,65.17
2024-01-12T11:09:42.973Z,43.40
2024-01-12T11:12:16.024Z,92.53
2024-01-12T11:14:46.802Z,109.73
2024-01-12T11:17:16.868Z,85.83
2024-01-12T11:19:49.902Z,99.17
2024-01-12T11:22:19.908Z,55.67
2024-01-12T11:24:54.178Z,48.83
2024-01-12T11:27:24.956Z,53.87
2024-01-12T11:30:01.897Z,58.67
2024-01-12T11:32:35.317Z,53.27
2024-01-12T11:35:16.825Z,49.57
2024-01-12T11:37:48.529Z,44.77
2024-01-12T11:40:21.045Z,58.27
2024-01-12T11:42:51.522Z,39.87
2024-01-12T11:45:22.538Z,43.43
2024-01-12T11:47:52.549Z,45.80
2024-01-12T11:50:26.412Z,57.43
2024-01-12T11:53:00.194Z,38.20
2024-01-12T11:55:34.115Z,45.33
2024-01-12T11:58:04.276Z,32.90
2024-01-12T12:00:34.609Z,33.00
2024-01-12T12:03:04.536Z,34.37
2024-01-12T12:05:34.695Z,51.00
2024-01-12T12:08:06.317Z,30.77
2024-01-12T12:10:43.844Z,31.47
2024-01-12T12:13:20.193Z,30.60
2024-01-12T12:15:50.288Z,29.87
2024-01-12T12:18:22.578Z,32.47
2024-01-12T12:20:52.723Z,37.80
2024-01-12T12:23:22.766Z,23.67
2024-01-12T12:25:56.741Z,35.67
2024-01-12T12:28:27.931Z,24.40
2024-01-12T12:30:58.518Z,34.27
2024-01-12T12:33:28.973Z,30.50
2024-01-12T12:36:09.544Z,36.00
2024-01-12T12:38:40.853Z,33.20
2024-01-12T12:41:13.463Z,36.93
2024-01-12T12:43:45.223Z,34.00
2024-01-12T12:46:15.091Z,37.27
2024-01-12T12:48:47.276Z,33.47
2024-01-12T12:51:17.616Z,29.83
2024-01-12T12:53:47.527Z,28.77
2024-01-12T12:56:20.136Z,37.03
2024-01-12T12:58:50.218Z,27.20
2024-01-12T13:01:20.104Z,33.60
2024-01-12T13:03:50.421Z,32.33
2024-01-12T13:06:20.431Z,32.60
2024-01-12T13:08:50.367Z,28.17
2024-01-12T13:11:22.894Z,37.57
2024-01-12T13:13:55.573Z,35.20
2024-01-12T13:16:25.467Z,36.57
2024-01-12T13:19:03.622Z,34.03
2024-01-12T13:21:41.006Z,39.93
2024-01-12T13:24:11.118Z,37.43
2024-01-12T13:26:43.691Z,35.20
2024-01-12T13:29:13.574Z,32.67
2024-01-12T13:31:44.111Z,36.33
2024-01-12T13:34:16.953Z,47.57
2024-01-12T13:36:49.613Z,37.47
2024-01-12T13:39:19.618Z,51.57
2024-01-12T13:41:52.397Z,36.27
2024-01-12T13:44:22.349Z,33.77
2024-01-12T13:46:52.205Z,38.47
2024-01-12T13:49:22.331Z,37.13
2024-01-12T13:51:52.339Z,45.93
2024-01-12T13:54:22.392Z,37.93
2024-01-12T13:56:54.889Z,44.80
2024-01-12T13:59:24.923Z,36.10
2024-01-12T14:01:54.819Z,37.27
2024-01-12T14:04:24.973Z,41.63
2024-01-12T14:06:55.266Z,33.63
2024-01-12T14:09:25.683Z,39.63
2024-01-12T14:11:59.289Z,32.90
2024-01-12T14:14:29.383Z,39.17
2024-01-12T14:17:01.780Z,40.43
2024-01-12T14:19:32.091Z,33.47
2024-01-12T14:22:02.141Z,34.60
2024-01-12T14:24:31.999Z,38.63
2024-01-12T14:27:05.580Z,54.57
2024-01-12T14:29:35.614Z,42.03
2024-01-12T14:32:05.733Z,41.50
2024-01-12T14:34:35.668Z,37.63
2024-01-12T14:37:05.784Z,47.13
2024-01-12T14:39:35.980Z,41.93
2024-01-12T14:42:08.667Z,33.80
2024-01-12T14:44:38.559Z,46.17
2024-01-12T14:47:09.313Z,39.07
2024-01-12T14:49:42.562Z,42.07
2024-01-12T14:52:12.633Z,48.10
2024-01-12T14:54:45.706Z,33.87
2024-01-12T14:57:18.239Z,43.63
2024-01-12T14:59:48.287Z,47.13
2024-01-12T15:02:18.369Z,51.83
2024-01-12T15:04:49.211Z,48.40
2024-01-12T15:07:20.195Z,44.97
2024-01-12T15:09:50.416Z,42.80
2024-01-12T15:12:23.399Z,45.30
2024-01-12T15:14:53.598Z,50.60
2024-01-12T15:19:53.743Z,42.73
2024-01-12T15:22:23.641Z,45.30
2024-01-12T15:24:54.597Z,45.37
2024-01-12T15:27:27.135Z,49.27
2024-01-12T15:29:56.998Z,51.20
2024-01-12T15:32:27.078Z,46.43
2024-01-12T15:34:57.274Z,49.10
2024-01-12T15:37:30.220Z,48.50
2024-01-12T15:40:03.317Z,46.37
2024-01-12T15:42:42.394Z,44.27
2024-01-12T15:45:18.815Z,47.07
2024-01-12T15:47:49.314Z,44.77
2024-01-12T15:50:19.756Z,43.77
2024-01-12T15:52:49.986Z,45.23
2024-01-12T15:55:20.994Z,42.83
2024-01-12T15:57:54.088Z,43.43
2024-01-12T16:00:24.813Z,52.73
2024-01-12T16:02:57.325Z,51.23
2024-01-12T16:05:27.749Z,41.57
2024-01-12T16:08:02.294Z,36.23
2024-01-12T16:10:35.321Z,42.90
2024-01-12T16:13:09.432Z,45.77
2024-01-12T16:15:39.720Z,40.20
2024-01-12T16:18:10.664Z,50.80
2024-01-12T16:20:41.064Z,56.27
2024-01-12T16:23:11.401Z,54.90
2024-01-12T16:25:41.644Z,48.83
2024-01-12T16:28:17.736Z,44.70
2024-01-12T16:30:48.796Z,48.77
2024-01-12T16:33:24.137Z,51.60
2024-01-12T16:35:54.928Z,43.00
2024-01-12T16:38:25.429Z,47.20
2024-01-12T16:40:57.245Z,40.50
2024-01-12T16:43:55.780Z,48.13
2024-01-12T16:46:27.372Z,48.00
2024-01-12T16:48:58.128Z,40.27
2024-01-12T16:51:45.402Z,51.33
2024-01-12T16:54:16.613Z,39.73
2024-01-12T16:56:52.253Z,46.13
2024-01-12T16:59:25.811Z,41.50
2024-01-12T17:01:57.177Z,35.53
2024-01-12T17:04:28.215Z,43.33
2024-01-12T17:07:05.180Z,49.20
2024-01-12T17:09:39.501Z,61.20
2024-01-12T17:12:10.659Z,48.13
2024-01-12T17:14:44.112Z,43.47
2024-01-12T17:17:22.868Z,49.53
2024-01-12T17:20:02.888Z,45.10
2024-01-12T17:22:34.346Z,45.57
2024-01-12T17:25:05.843Z,48.77
2024-01-12T17:27:42.878Z,41.43
2024-01-12T17:30:49.101Z,50.93
2024-01-12T17:33:20.161Z,45.23
2024-01-12T17:35:58.248Z,62.00
2024-01-12T17:41:39.604Z,48.80
2024-01-12T17:44:10.591Z,47.87
2024-01-12T17:46:45.167Z,46.83
2024-01-12T17:49:18.174Z,43.10
2024-01-12T17:51:49.661Z,42.07
2024-01-12T17:54:22.673Z,44.33
2024-01-12T17:56:53.279Z,49.93
2024-01-12T17:59:23.504Z,42.23
2024-01-12T18:01:58.543Z,42.13
2024-01-12T18:04:30.763Z,63.80
2024-01-12T18:07:01.283Z,43.97
2024-01-12T18:09:31.601Z,50.00
2024-01-12T18:12:06.192Z,42.53
2024-01-12T18:14:38.303Z,46.33
2024-01-12T18:17:12.523Z,42.97
2024-01-12T18:19:43.276Z,41.73
2024-01-12T18:22:13.668Z,49.33
2024-01-12T18:24:49.815Z,42.33
2024-01-12T18:27:21.487Z,40.50
2024-01-12T18:29:52.042Z,45.83
2024-01-12T18:32:25.153Z,49.10
2024-01-12T18:35:00.702Z,45.70
2024-01-12T18:37:30.963Z,43.67
2024-01-12T18:40:01.237Z,44.53
2024-01-12T18:42:31.835Z,42.73
2024-01-12T18:45:02.202Z,45.03
2024-01-12T18:47:35.270Z,38.87
2024-01-12T18:50:07.531Z,42.33
2024-01-12T18:52:39.309Z,45.30
2024-01-12T18:55:10.833Z,48.60
2024-01-12T18:57:41.105Z,42.70
2024-01-12T19:00:12.909Z,40.43
2024-01-12T19:02:47.341Z,44.50
2024-01-12T19:05:18.126Z,48.27
2024-01-12T19:07:48.364Z,53.30
2024-01-12T19:10:20.995Z,53.97
2024-01-12T19:12:59.345Z,49.30
2024-01-12T19:15:29.679Z,42.90
2024-01-12T19:18:03.360Z,44.53
2024-01-12T19:20:35.072Z,62.63
2024-01-12T19:23:05.842Z,42.63
2024-01-12T19:25:36.229Z,43.50
2024-01-12T19:28:06.713Z,48.33
2024-01-12T19:30:37.019Z,45.17
2024-01-12T19:33:10.098Z,41.23
2024-01-12T19:35:42.924Z,43.67
2024-01-12T19:38:14.058Z,47.60
2024-01-12T19:40:44.791Z,40.10
2024-01-12T19:43:15.683Z,39.07
2024-01-12T19:45:46.051Z,48.27
2024-01-12T19:48:19.134Z,40.93
2024-01-12T19:50:52.179Z,47.90
2024-01-12T19:53:23.386Z,43.90
2024-01-12T19:55:56.643Z,55.57
2024-01-12T19:58:26.998Z,50.27
2024-01-12T20:01:01.586Z,48.67
2024-01-12T20:03:34.661Z,48.90
2024-01-12T20:06:05.420Z,49.70
2024-01-12T20:08:35.766Z,43.70
2024-01-12T20:11:07.342Z,45.27
2024-01-12T20:13:37.462Z,48.73
2024-01-12T20:16:07.853Z,48.30
2024-01-12T20:18:40.497Z,46.40
2024-01-12T20:21:11.103Z,49.77
2024-01-12T20:23:41.138Z,51.13
2024-01-12T20:26:11.072Z,46.73
2024-01-12T20:28:40.971Z,44.30
2024-01-12T20:31:10.999Z,47.50
2024-01-12T20:33:43.907Z,55.13
2024-01-12T20:36:14.071Z,46.20
2024-01-12T20:38:44.658Z,47.10
2024-01-12T20:41:15.438Z,42.53
2024-01-12T20:43:45.580Z,45.20
2024-01-12T20:46:15.465Z,42.80
2024-01-12T20:48:49.087Z,42.90
2024-01-12T20:51:19.140Z,42.57
2024-01-12T20:53:49.273Z,46.23
2024-01-12T20:56:19.343Z,45.07
2024-01-12T20:58:49.337Z,42.30
2024-01-12T21:01:19.389Z,52.10
2024-01-12T21:03:52.341Z,49.50
2024-01-12T21:06:22.418Z,41.23
2024-01-12T21:08:52.348Z,40.17
2024-01-12T21:11:22.319Z,42.00
2024-01-12T21:13:52.176Z,41.20
2024-01-12T21:16:22.211Z,38.10
2024-01-12T21:18:55.574Z,41.30
2024-01-12T21:21:25.732Z,46.70
2024-01-12T21:23:55.731Z,46.97
2024-01-12T21:26:25.844Z,41.80
2024-01-12T21:28:55.763Z,41.43
2024-01-12T21:31:25.683Z,40.80
2024-01-12T21:33:58.423Z,47.43
2024-01-12T21:36:28.885Z,45.77
2024-01-12T21:39:00.272Z,44.07
2024-01-12T21:41:30.792Z,48.80
2024-01-12T21:44:00.811Z,50.77
2024-01-12T21:46:30.777Z,68.60
2024-01-12T21:49:04.021Z,44.73
2024-01-12T21:51:34.120Z,48.87
2024-01-12T21:54:04.126Z,44.37
2024-01-12T21:56:34.066Z,38.40
2024-01-12T21:59:04.107Z,42.07
2024-01-12T22:01:34.049Z,35.17
2024-01-12T22:04:06.892Z,39.50
2024-01-12T22:06:36.931Z,44.43
2024-01-12T22:09:10.091Z,47.37
2024-01-12T22:11:41.467Z,43.77
2024-01-12T22:14:11.408Z,60.87
2024-01-12T22:16:41.367Z,43.27
2024-01-12T22:19:14.206Z,36.90
2024-01-12T22:21:44.238Z,47.47
2024-01-12T22:24:16.935Z,45.90
2024-01-12T22:26:46.991Z,52.43
2024-01-12T22:29:17.059Z,47.20
2024-01-12T22:31:47.006Z,49.70
2024-01-12T22:34:19.496Z,50.57
2024-01-12T22:36:49.443Z,43.83
2024-01-12T22:39:19.418Z,50.80
2024-01-12T22:41:49.427Z,43.83
2024-01-12T22:44:21.266Z,46.53
2024-01-12T22:46:51.444Z,45.33
2024-01-12T22:49:24.267Z,49.77
2024-01-12T22:51:54.391Z,38.57
2024-01-12T22:54:24.539Z,39.87
2024-01-12T22:56:54.604Z,48.87
2024-01-12T22:59:24.810Z,48.40
2024-01-12T23:01:54.710Z,43.97
2024-01-12T23:04:27.226Z,54.97
2024-01-12T23:06:57.087Z,44.80
2024-01-12T23:09:26.997Z,49.30
2024-01-12T23:12:01.776Z,55.20
2024-01-12T23:14:31.702Z,41.50
2024-01-12T23:17:01.664Z,46.37
2024-01-12T23:19:34.276Z,41.23
2024-01-12T23:22:04.162Z,40.70
2024-01-12T23:24:33.991Z,51.63
2024-01-12T23:27:04.091Z,50.37
2024-01-12T23:29:38.339Z,50.67
2024-01-12T23:32:16.309Z,46.33
2024-01-12T23:34:49.132Z,46.90
2024-01-12T23:37:19.339Z,45.90
2024-01-12T23:39:49.555Z,45.07
2024-01-12T23:42:19.488Z,42.03
2024-01-12T23:44:49.444Z,42.07
2024-01-12T23:47:21.696Z,46.33
2024-01-12T23:49:54.351Z,44.40
2024-01-12T23:52:24.359Z,46.57
2024-01-12T23:54:54.336Z,42.00
2024-01-12T23:57:25.124Z,42.03
2024-01-12T23:59:55.115Z,46.17
